createdAt,value
2023-02-19T00:21:19.678Z,88.56
2023-02-19T00:23:51.724Z,89.06
2023-02-19T00:26:21.303Z,89.64
2023-02-19T00:50:23.822Z,89.04
2023-02-19T00:52:50.616Z,90.23
2023-02-19T00:55:17.308Z,90.36
2023-02-19T00:57:44.389Z,91.95
2023-02-19T01:21:40.853Z,91.17
2023-02-19T01:24:07.762Z,90.40
2023-02-19T01:26:34.546Z,88.82
2023-02-19T01:53:35.015Z,94.20
2023-02-19T01:56:02.823Z,95.63
2023-02-19T01:58:33.625Z,96.69
2023-02-19T07:48:21.620Z,65.65
2023-02-19T07:51:12.862Z,61.21
2023-02-19T07:54:21.800Z,58.88
2023-02-19T07:56:51.474Z,57.73
2023-02-19T07:59:26.460Z,57.94
2023-02-19T08:13:03.366Z,55.16
2023-02-19T08:16:24.105Z,53.47
2023-02-19T08:19:18.449Z,53.02
2023-02-19T08:21:49.029Z,56.64
2023-02-19T08:24:19.073Z,63.80
2023-02-19T08:27:06.408Z,54.00
2023-02-19T08:35:15.232Z,54.77
2023-02-19T08:37:42.251Z,52.23
2023-02-19T08:40:09.657Z,51.54
2023-02-19T08:42:36.577Z,50.64
2023-02-19T08:45:04.609Z,52.03
2023-02-19T08:47:31.861Z,52.92
2023-02-19T08:49:58.648Z,53.56
2023-02-19T08:52:25.712Z,52.16
2023-02-19T08:54:52.623Z,53.46
2023-02-19T08:57:19.451Z,52.87
2023-02-19T08:59:46.648Z,52.99
2023-02-19T09:02:13.466Z,52.10
2023-02-19T09:04:40.371Z,52.61
2023-02-19T09:07:09.675Z,52.99
2023-02-19T09:09:40.242Z,54.02
2023-02-19T09:12:11.643Z,54.18
2023-02-19T09:14:39.039Z,51.27
2023-02-19T09:17:45.244Z,51.42
2023-02-19T09:20:12.433Z,51.20
2023-02-19T09:22:39.320Z,53.38
2023-02-19T09:25:06.220Z,52.40
2023-02-19T09:27:33.837Z,52.51
2023-02-19T09:30:00.857Z,51.60
2023-02-19T09:32:32.637Z,52.74
2023-02-19T09:35:03.117Z,51.46
2023-02-19T09:37:29.913Z,50.73
2023-02-19T09:42:41.335Z,50.22
2023-02-19T09:45:08.740Z,50.12
2023-02-19T09:47:35.769Z,49.83
2023-02-19T09:50:08.942Z,49.81
2023-02-19T09:52:45.344Z,49.34
2023-02-19T09:55:36.859Z,48.30
2023-02-19T09:58:47.546Z,45.55
2023-02-19T10:01:21.918Z,46.37
2023-02-19T10:03:49.567Z,44.87
2023-02-19T10:06:24.448Z,45.16
2023-02-19T10:08:55.536Z,43.75
2023-02-19T10:11:26.098Z,44.33
2023-02-19T10:14:06.644Z,43.81
2023-02-19T10:16:34.464Z,44.11
2023-02-19T10:19:01.455Z,44.82
2023-02-19T10:21:29.445Z,44.17
2023-02-19T10:24:01.537Z,42.79
2023-02-19T10:27:07.836Z,44.41
2023-02-19T10:29:35.262Z,44.44
2023-02-19T10:32:21.464Z,45.41
2023-02-19T10:34:54.720Z,44.31
2023-02-19T10:37:29.504Z,44.01
2023-02-19T10:39:58.969Z,42.54
2023-02-19T10:42:26.272Z,42.94
2023-02-19T10:47:33.048Z,42.23
2023-02-19T10:50:04.686Z,42.35
2023-02-19T10:52:36.369Z,42.13
2023-02-19T10:55:28.517Z,40.56
2023-02-19T10:57:56.477Z,41.52
2023-02-19T11:00:30.492Z,39.98
2023-02-19T11:03:24.273Z,39.60
2023-02-19T11:06:02.087Z,38.70
2023-02-19T11:08:30.546Z,38.97
2023-02-19T11:10:57.408Z,39.36
2023-02-19T11:13:32.883Z,38.93
2023-02-19T11:16:00.564Z,38.82
2023-02-19T11:18:35.347Z,37.44
2023-02-19T11:21:05.194Z,37.18
2023-02-19T11:23:37.661Z,36.57
2023-02-19T11:26:07.432Z,36.83
2023-02-19T11:28:37.997Z,37.01
2023-02-19T11:31:15.954Z,38.68
2023-02-19T11:33:54.655Z,37.04
2023-02-19T11:36:32.274Z,36.78
2023-02-19T11:39:03.629Z,37.93
2023-02-19T11:42:24.677Z,35.95
2023-02-19T11:45:09.652Z,36.08
2023-02-19T11:48:09.368Z,36.52
2023-02-19T11:50:45.321Z,36.26
2023-02-19T11:53:34.782Z,36.01
2023-02-19T11:56:41.954Z,36.66
2023-02-19T11:59:37.134Z,34.83
2023-02-19T12:02:19.946Z,34.77
2023-02-19T12:05:10.859Z,35.20
2023-02-19T12:07:56.130Z,35.73
2023-02-19T12:10:48.548Z,35.50
2023-02-19T12:13:44.525Z,34.49
2023-02-19T12:16:43.512Z,34.97
2023-02-19T12:19:16.640Z,35.72
2023-02-19T12:21:55.644Z,34.25
2023-02-19T12:24:40.546Z,33.63
2023-02-19T12:27:28.545Z,33.68
2023-02-19T12:30:44.638Z,32.22
2023-02-19T12:33:46.995Z,32.40
2023-02-19T12:36:43.094Z,32.30
2023-02-19T12:39:37.713Z,32.55
2023-02-19T12:42:19.639Z,32.13
2023-02-19T12:44:55.699Z,32.28
2023-02-19T12:47:31.405Z,32.24
2023-02-19T12:50:13.556Z,32.36
2023-02-19T12:52:43.317Z,32.20
2023-02-19T12:55:33.008Z,32.89
2023-02-19T12:58:04.803Z,31.73
2023-02-19T13:00:54.201Z,32.76
2023-02-19T13:03:32.440Z,32.26
2023-02-19T13:06:13.921Z,32.22
2023-02-19T13:09:07.375Z,32.77
2023-02-19T13:11:51.677Z,33.24
2023-02-19T13:14:26.161Z,32.47
2023-02-19T13:17:18.596Z,31.99
2023-02-19T13:19:58.257Z,31.98
2023-02-19T13:22:51.831Z,32.40
2023-02-19T13:25:46.752Z,31.86
2023-02-19T13:29:12.622Z,32.14
2023-02-19T13:32:04.130Z,32.47
2023-02-19T13:35:23.621Z,31.83
2023-02-19T13:37:54.265Z,31.62
2023-02-19T13:59:41.961Z,33.94
2023-02-19T14:02:32.508Z,33.45
2023-02-19T14:06:03.105Z,32.82
2023-02-19T14:08:49.070Z,32.48
2023-02-19T14:11:19.267Z,32.33
2023-02-19T14:14:06.756Z,32.58
2023-02-19T14:16:39.304Z,34.38
2023-02-19T14:19:41.368Z,33.29
2023-02-19T14:22:57.818Z,33.97
2023-02-19T14:25:31.210Z,32.64
2023-02-19T14:28:14.690Z,33.40
2023-02-19T14:30:52.570Z,32.90
2023-02-19T14:33:33.884Z,32.83
2023-02-19T14:36:21.270Z,33.82
2023-02-19T14:38:55.633Z,33.39
2023-02-19T14:41:24.280Z,34.31
2023-02-19T14:43:54.140Z,33.33
2023-02-19T14:46:44.652Z,34.10
2023-02-19T14:49:23.246Z,33.76
2023-02-19T14:51:55.771Z,34.22
2023-02-19T14:55:11.530Z,34.71
2023-02-19T14:57:48.258Z,34.89
2023-02-19T15:00:24.369Z,35.04
2023-02-19T15:02:53.677Z,34.89
2023-02-19T15:05:32.423Z,34.87
2023-02-19T15:08:03.018Z,34.89
2023-02-19T15:10:32.301Z,35.28
2023-02-19T15:13:08.763Z,35.61
2023-02-19T15:15:45.489Z,35.79
2023-02-19T15:18:22.115Z,35.87
2023-02-19T15:20:51.599Z,35.79
2023-02-19T15:23:23.663Z,36.15
2023-02-19T15:25:51.484Z,36.48
2023-02-19T15:28:35.192Z,44.26
2023-02-19T17:43:08.301Z,50.14
2023-02-19T22:56:38.167Z,72.40
2023-02-19T22:59:16.106Z,72.27
2023-02-19T23:01:44.112Z,73.19
2023-02-19T23:04:19.467Z,73.05
2023-02-19T23:06:50.714Z,74.23
2023-02-19T23:09:31.342Z,74.72
2023-02-19T23:12:11.725Z,74.35
2023-02-19T23:14:39.956Z,73.72
2023-02-19T23:17:08.685Z,73.78
2023-02-19T23:19:36.201Z,72.71
2023-02-19T23:36:34.733Z,72.42
2023-02-19T23:39:11.740Z,73.11
2023-02-19T23:41:40.556Z,73.66
2023-02-19T23:44:10.133Z,72.16
2023-02-19T23:46:37.152Z,72.43
2023-02-19T23:49:11.392Z,71.92
2023-02-19T23:51:38.964Z,71.66
2023-02-19T23:54:11.489Z,71.89
2023-02-19T23:57:03.536Z,70.66
2023-02-19T23:59:34.588Z,69.88
